Terminal Aerodrome Forecast
Issued by NWS

Home | Current Version | Previous Version | Text Only | Print | Product List | Glossary Off
Versions: 1 2 3 4 5 6 7 8 9 10 11 12 13 14 15 16 17 18 19

000
FTUS43 KGRB 210949 AAA
TAFRHI
TAF AMD
KRHI 210949Z 2110/2206 VRB03KT 3SM BR FEW005
      TEMPO 2110/2113 1/2SM FG BKN004
     FM211400 08005KT P6SM SCT005 SCT025
     FM211700 14006KT P6SM BKN025
     FM220200 16006KT P6SM BKN020=

USA.gov is the U.S. government's official web portal to all federal, state and local government web resources and services.